Time;durP1;ratioP1;P1;durP2;ratioP2;P2;SDS_P1;SDS_P2;PMS_P1;PMS_P2;Temp;Humidity;BMP_temperature;BMP_pressure;BME280_temperature;BME280_humidity;BME280_pressure;Samples;Min_cycle;Max_cycle;Signal;HPM_P1;HPM_P2
2022/12/14 07:09:20;;;;;;;30.17;19.98;;;;;;;-4.62;93.25;97880.98;1817169;77;21003;-63
2022/12/14 07:11:50;;;;;;;31.33;19.95;;;;;;;-4.45;93.06;97891.36;1812509;78;21418;-64
2022/12/14 07:14:16;;;;;;;34.90;21.48;;;;;;;-4.37;92.68;97887.27;1807512;78;21454;-63
2022/12/14 07:16:43;;;;;;;30.85;19.65;;;;;;;-4.28;92.58;97888.69;1822026;78;20911;-60
2022/12/14 07:19:10;;;;;;;37.40;21.65;;;;;;;-4.17;92.48;97892.02;1824438;78;21324;-65
2022/12/14 07:21:37;;;;;;;35.98;22.13;;;;;;;-4.03;92.22;97895.97;1824662;77;20900;-65
2022/12/14 07:24:05;;;;;;;39.73;24.35;;;;;;;-3.97;91.76;97901.70;1817304;77;21474;-62
2022/12/14 07:26:31;;;;;;;58.55;30.90;;;;;;;-3.92;91.59;97896.18;1824536;78;21486;-65
2022/12/14 07:28:59;;;;;;;61.92;33.95;;;;;;;-3.84;91.48;97902.50;1796671;78;20978;-63
2022/12/14 07:31:27;;;;;;;50.00;30.48;;;;;;;-3.73;91.35;97908.47;1798845;78;20928;-64
2022/12/14 07:33:55;;;;;;;43.67;24.70;;;;;;;-3.61;91.24;97901.62;1816996;77;21082;-58
2022/12/14 07:36:23;;;;;;;41.80;25.52;;;;;;;-3.56;90.53;97902.31;1794682;79;20968;-61
2022/12/14 07:38:50;;;;;;;31.55;20.57;;;;;;;-3.55;90.44;97897.37;1809072;79;21979;-60
2022/12/14 07:41:20;;;;;;;42.05;22.70;;;;;;;-3.48;90.39;97900.78;1812784;78;20832;-62
2022/12/14 07:43:46;;;;;;;36.45;22.07;;;;;;;-3.40;90.02;97897.96;1819989;77;20929;-62
2022/12/14 07:46:16;;;;;;;30.25;18.75;;;;;;;-3.35;89.80;97898.66;1822171;78;20927;-61
2022/12/14 07:48:44;;;;;;;25.90;17.77;;;;;;;-3.29;89.44;97904.37;1816686;78;21439;-65
2022/12/14 07:51:15;;;;;;;41.18;23.38;;;;;;;-3.27;88.96;97897.92;1818007;78;21126;-67
2022/12/14 07:53:41;;;;;;;24.75;16.60;;;;;;;-3.26;88.62;97899.55;1816179;77;20903;-63
2022/12/14 07:56:14;;;;;;;34.30;20.95;;;;;;;-3.29;87.98;97896.02;1816595;78;20900;-62
2022/12/14 07:58:41;;;;;;;34.98;22.13;;;;;;;-3.33;87.75;97902.69;1816257;77;20979;-66
2022/12/14 08:01:21;;;;;;;39.92;24.35;;;;;;;-3.30;87.67;97902.28;1810341;79;20900;-64
2022/12/14 08:03:52;;;;;;;33.73;19.52;;;;;;;-3.27;87.31;97903.16;1800349;77;21204;-66
2022/12/14 08:06:22;;;;;;;25.97;17.15;;;;;;;-3.27;86.80;97908.41;1807926;77;20963;-60
2022/12/14 08:08:49;;;;;;;25.43;16.85;;;;;;;-3.26;86.65;97913.95;1813485;77;21053;-63
2022/12/14 08:11:16;;;;;;;23.05;15.43;;;;;;;-3.26;86.27;97916.58;1806765;79;20884;-61
2022/12/14 08:13:43;;;;;;;26.57;17.48;;;;;;;-3.21;86.03;97904.17;1806596;79;20924;-66
2022/12/14 08:16:12;;;;;;;24.32;15.85;;;;;;;-3.18;85.89;97909.79;1812880;79;21244;-64
2022/12/14 08:18:40;;;;;;;27.37;17.45;;;;;;;-3.14;85.42;97914.13;1816052;78;20913;-62
2022/12/14 08:21:08;;;;;;;23.92;16.40;;;;;;;-3.15;85.21;97912.01;1805360;77;20892;-64
2022/12/14 08:23:35;;;;;;;25.08;17.73;;;;;;;-3.15;85.11;97912.01;1809411;77;21011;-69
2022/12/14 08:26:03;;;;;;;21.20;14.18;;;;;;;-3.16;84.62;97909.11;1799507;79;20957;-66
2022/12/14 08:28:34;;;;;;;21.85;15.80;;;;;;;-3.15;84.38;97900.72;1813253;79;21221;-63
2022/12/14 08:31:16;;;;;;;27.55;18.50;;;;;;;-3.08;84.16;97904.13;1804190;79;20896;-63
2022/12/14 08:33:43;;;;;;;19.73;12.45;;;;;;;-3.04;83.82;97900.89;1804177;79;20975;-66
2022/12/14 08:36:14;;;;;;;18.80;11.73;;;;;;;-3.04;83.20;97904.81;1790339;77;21019;-60
2022/12/14 08:38:41;;;;;;;20.97;13.83;;;;;;;-3.05;82.57;97902.41;1784103;79;20975;-67
2022/12/14 08:41:10;;;;;;;29.37;17.32;;;;;;;-3.08;82.45;97894.45;1801660;79;21114;-62
2022/12/14 08:43:37;;;;;;;28.75;17.77;;;;;;;-3.03;82.47;97899.89;1788748;78;21391;-66
2022/12/14 08:46:05;;;;;;;26.15;17.82;;;;;;;-2.94;82.08;97885.54;1792601;77;20990;-64
2022/12/14 08:48:31;;;;;;;24.95;16.25;;;;;;;-2.85;81.79;97894.78;1803783;79;20967;-65
2022/12/14 08:51:02;;;;;;;25.57;15.78;;;;;;;-2.80;81.38;97892.34;1815747;78;20907;-63
2022/12/14 08:54:14;;;;;;;17.05;12.07;;;;;;;-2.62;80.62;97888.24;1869353;76;28438;-58
2022/12/14 08:56:41;;;;;;;18.48;12.10;;;;;;;-2.61;79.57;97891.14;1853245;77;20880;-62
2022/12/14 08:59:08;;;;;;;21.60;12.05;;;;;;;-2.62;78.67;97884.31;1835041;77;21430;-66
2022/12/14 09:01:34;;;;;;;22.30;14.30;;;;;;;-2.62;78.46;97884.31;1819656;79;21009;-65
2022/12/14 09:04:06;;;;;;;28.00;17.20;;;;;;;-2.59;77.97;97875.50;1836203;77;20869;-70
2022/12/14 09:06:37;;;;;;;27.58;17.32;;;;;;;-2.53;77.49;97875.19;1828998;77;21024;-65
2022/12/14 09:09:05;;;;;;;40.55;25.65;;;;;;;-2.45;77.27;97867.86;1825129;77;20919;-63
2022/12/14 09:11:31;;;;;;;39.53;22.10;;;;;;;-2.33;77.13;97873.27;1828380;77;21110;-64
2022/12/14 09:13:58;;;;;;;29.20;19.23;;;;;;;-2.18;76.85;97863.27;1839846;77;20971;-62
2022/12/14 09:16:25;;;;;;;23.50;14.68;;;;;;;-2.02;76.44;97861.42;1833078;77;20964;-63
2022/12/14 09:18:53;;;;;;;17.55;11.33;;;;;;;-1.88;75.33;97868.19;1825199;77;20996;-65
2022/12/14 09:21:20;;;;;;;19.55;10.98;;;;;;;-1.79;74.01;97872.14;1826222;77;20943;-63
2022/12/14 09:23:47;;;;;;;34.92;22.82;;;;;;;-1.80;73.27;97866.62;1831459;77;22897;-68
2022/12/14 09:26:16;;;;;;;45.70;27.32;;;;;;;-1.76;73.18;97866.47;1828057;77;20962;-68
2022/12/14 09:28:52;;;;;;;22.32;15.43;;;;;;;-1.72;72.77;97868.95;1843536;77;20999;-62
2022/12/14 09:31:22;;;;;;;20.75;13.88;;;;;;;-1.71;72.42;97866.64;1819757;79;20933;-68
2022/12/14 09:33:48;;;;;;;23.73;13.65;;;;;;;-1.70;72.24;97856.44;1819880;78;21487;-62
2022/12/14 09:36:25;;;;;;;25.85;17.17;;;;;;;-1.68;72.18;97858.34;1819262;78;21168;-65
2022/12/14 09:38:54;;;;;;;29.67;18.75;;;;;;;-1.67;71.84;97854.67;1828388;77;20939;-63
2022/12/14 09:41:38;;;;;;;25.10;15.28;;;;;;;-1.64;71.93;97860.81;1814130;77;20919;-62
2022/12/14 09:44:32;;;;;;;19.98;13.90;;;;;;;-1.59;71.92;97857.04;1814501;77;21473;-68
2022/12/14 09:47:15;;;;;;;27.35;19.35;;;;;;;-1.55;71.48;97850.33;1830705;77;21032;-63
2022/12/14 09:50:11;;;;;;;22.95;16.75;;;;;;;-1.51;71.50;97848.08;1847329;77;21222;-62
2022/12/14 09:52:47;;;;;;;26.93;19.80;;;;;;;-1.45;71.55;97852.45;1831828;77;20963;-59
2022/12/14 09:55:36;;;;;;;20.82;14.25;;;;;;;-1.21;71.38;97848.17;1824694;78;20869;-71
2022/12/14 09:58:27;;;;;;;18.62;11.57;;;;;;;-0.96;70.60;97843.13;1832102;78;20964;-62
2022/12/14 10:01:24;;;;;;;14.83;10.40;;;;;;;-0.70;69.74;97839.36;1821770;77;21006;-64
